sensor_id;sensor_type;location;lat;lon;timestamp;temperature;humidity
22956;DHT22;40888;48.148;11.526;2023-09-12T00:29:02;22.30;99.90
22956;DHT22;40888;48.148;11.526;2023-09-12T00:31:28;22.60;99.90
22956;DHT22;40888;48.148;11.526;2023-09-12T00:33:54;22.50;99.90
22956;DHT22;40888;48.148;11.526;2023-09-12T00:36:19;22.70;99.90
22956;DHT22;40888;48.148;11.526;2023-09-12T00:38:45;22.60;99.90
22956;DHT22;40888;48.148;11.526;2023-09-12T00:41:11;22.90;99.90
22956;DHT22;40888;48.148;11.526;2023-09-12T00:43:36;22.70;99.90
22956;DHT22;40888;48.148;11.526;2023-09-12T00:46:02;22.60;99.90
22956;DHT22;40888;48.148;11.526;2023-09-12T00:48:28;22.70;99.90
22956;DHT22;40888;48.148;11.526;2023-09-12T00:50:55;22.60;99.90
22956;DHT22;40888;48.148;11.526;2023-09-12T00:53:21;22.50;99.90
22956;DHT22;40888;48.148;11.526;2023-09-12T00:55:51;22.50;99.90
22956;DHT22;40888;48.148;11.526;2023-09-12T00:58:19;22.60;99.90
22956;DHT22;40888;48.148;11.526;2023-09-12T01:00:45;22.40;99.90
22956;DHT22;40888;48.148;11.526;2023-09-12T01:03:11;22.00;99.90
22956;DHT22;40888;48.148;11.526;2023-09-12T01:05:37;22.00;99.90
22956;DHT22;40888;48.148;11.526;2023-09-12T01:08:03;22.10;99.90
22956;DHT22;40888;48.148;11.526;2023-09-12T01:10:30;22.00;99.90
22956;DHT22;40888;48.148;11.526;2023-09-12T01:12:56;22.00;99.90
22956;DHT22;40888;48.148;11.526;2023-09-12T01:15:21;22.10;99.90
22956;DHT22;40888;48.148;11.526;2023-09-12T01:17:47;21.80;99.90
22956;DHT22;40888;48.148;11.526;2023-09-12T01:20:23;21.80;99.90
22956;DHT22;40888;48.148;11.526;2023-09-12T01:22:55;22.00;99.90
22956;DHT22;40888;48.148;11.526;2023-09-12T01:28:17;21.60;99.90
22956;DHT22;40888;48.148;11.526;2023-09-12T01:30:45;21.50;99.90
22956;DHT22;40888;48.148;11.526;2023-09-12T01:33:13;21.50;99.90
22956;DHT22;40888;48.148;11.526;2023-09-12T01:35:39;21.70;99.90
22956;DHT22;40888;48.148;11.526;2023-09-12T01:38:04;21.70;99.90
22956;DHT22;40888;48.148;11.526;2023-09-12T01:40:43;21.70;99.90
22956;DHT22;40888;48.148;11.526;2023-09-12T01:43:09;21.90;99.90
22956;DHT22;40888;48.148;11.526;2023-09-12T01:45:36;22.00;99.90
22956;DHT22;40888;48.148;11.526;2023-09-12T01:48:04;21.90;99.90
22956;DHT22;40888;48.148;11.526;2023-09-12T01:50:31;22.00;99.90
22956;DHT22;40888;48.148;11.526;2023-09-12T01:52:59;22.20;99.90
22956;DHT22;40888;48.148;11.526;2023-09-12T01:55:25;22.30;99.90
22956;DHT22;40888;48.148;11.526;2023-09-12T01:57:51;22.00;99.90
22956;DHT22;40888;48.148;11.526;2023-09-12T02:00:20;22.30;99.90
22956;DHT22;40888;48.148;11.526;2023-09-12T02:02:47;22.20;99.90
22956;DHT22;40888;48.148;11.526;2023-09-12T02:05:18;22.30;99.90
22956;DHT22;40888;48.148;11.526;2023-09-12T02:07:45;22.00;99.90
22956;DHT22;40888;48.148;11.526;2023-09-12T02:10:12;22.00;99.90
22956;DHT22;40888;48.148;11.526;2023-09-12T02:12:37;21.60;99.90
22956;DHT22;40888;48.148;11.526;2023-09-12T02:15:04;21.70;99.90
22956;DHT22;40888;48.148;11.526;2023-09-12T02:17:30;21.80;99.90
22956;DHT22;40888;48.148;11.526;2023-09-12T02:19:55;21.60;99.90
22956;DHT22;40888;48.148;11.526;2023-09-12T02:22:21;21.50;99.90
22956;DHT22;40888;48.148;11.526;2023-09-12T02:24:47;21.50;99.90
22956;DHT22;40888;48.148;11.526;2023-09-12T02:27:13;21.60;99.90
22956;DHT22;40888;48.148;11.526;2023-09-12T02:29:41;21.60;99.90
22956;DHT22;40888;48.148;11.526;2023-09-12T02:32:06;21.90;99.90
22956;DHT22;40888;48.148;11.526;2023-09-12T02:34:33;21.70;99.90
22956;DHT22;40888;48.148;11.526;2023-09-12T02:36:59;21.80;99.90
22956;DHT22;40888;48.148;11.526;2023-09-12T02:39:24;21.80;99.90
22956;DHT22;40888;48.148;11.526;2023-09-12T02:41:50;22.00;99.90
22956;DHT22;40888;48.148;11.526;2023-09-12T02:44:16;21.60;99.90
22956;DHT22;40888;48.148;11.526;2023-09-12T02:46:42;21.50;99.90
22956;DHT22;40888;48.148;11.526;2023-09-12T02:49:08;21.60;99.90
22956;DHT22;40888;48.148;11.526;2023-09-12T02:51:33;21.30;99.90
22956;DHT22;40888;48.148;11.526;2023-09-12T02:53:59;21.00;99.90
22956;DHT22;40888;48.148;11.526;2023-09-12T02:56:25;21.10;99.90
22956;DHT22;40888;48.148;11.526;2023-09-12T02:58:51;21.20;99.90
22956;DHT22;40888;48.148;11.526;2023-09-12T03:01:17;21.30;99.90
22956;DHT22;40888;48.148;11.526;2023-09-12T03:03:46;21.40;99.90
22956;DHT22;40888;48.148;11.526;2023-09-12T03:06:12;21.30;99.90
22956;DHT22;40888;48.148;11.526;2023-09-12T03:08:42;20.90;99.90
22956;DHT22;40888;48.148;11.526;2023-09-12T03:11:09;21.00;99.90
22956;DHT22;40888;48.148;11.526;2023-09-12T03:13:40;20.90;99.90
22956;DHT22;40888;48.148;11.526;2023-09-12T03:16:13;21.20;99.90
22956;DHT22;40888;48.148;11.526;2023-09-12T03:18:40;21.00;99.90
22956;DHT22;40888;48.148;11.526;2023-09-12T03:21:06;21.10;99.90
22956;DHT22;40888;48.148;11.526;2023-09-12T03:23:32;21.10;99.90
22956;DHT22;40888;48.148;11.526;2023-09-12T03:26:06;21.10;99.90
22956;DHT22;40888;48.148;11.526;2023-09-12T03:28:33;21.00;99.90
22956;DHT22;40888;48.148;11.526;2023-09-12T03:31:11;21.10;99.90
22956;DHT22;40888;48.148;11.526;2023-09-12T03:33:38;21.00;99.90
22956;DHT22;40888;48.148;11.526;2023-09-12T03:36:06;21.00;99.90
22956;DHT22;40888;48.148;11.526;2023-09-12T03:38:32;20.90;99.90
22956;DHT22;40888;48.148;11.526;2023-09-12T03:40:58;21.10;99.90
22956;DHT22;40888;48.148;11.526;2023-09-12T03:43:24;20.70;99.90
22956;DHT22;40888;48.148;11.526;2023-09-12T03:45:50;21.00;99.90
22956;DHT22;40888;48.148;11.526;2023-09-12T03:48:16;20.90;99.90
22956;DHT22;40888;48.148;11.526;2023-09-12T03:50:43;20.80;99.90
22956;DHT22;40888;48.148;11.526;2023-09-12T03:53:09;20.40;99.90
22956;DHT22;40888;48.148;11.526;2023-09-12T03:55:34;20.40;99.90
22956;DHT22;40888;48.148;11.526;2023-09-12T03:58:00;20.30;99.90
22956;DHT22;40888;48.148;11.526;2023-09-12T04:00:26;20.10;99.90
22956;DHT22;40888;48.148;11.526;2023-09-12T04:02:52;20.20;99.90
22956;DHT22;40888;48.148;11.526;2023-09-12T04:05:17;20.50;99.90
22956;DHT22;40888;48.148;11.526;2023-09-12T04:07:43;20.40;99.90
22956;DHT22;40888;48.148;11.526;2023-09-12T04:10:09;20.10;99.90
22956;DHT22;40888;48.148;11.526;2023-09-12T04:12:34;20.10;99.90
22956;DHT22;40888;48.148;11.526;2023-09-12T04:15:00;20.10;99.90
22956;DHT22;40888;48.148;11.526;2023-09-12T04:17:26;19.90;99.90
22956;DHT22;40888;48.148;11.526;2023-09-12T04:19:52;19.90;99.90
22956;DHT22;40888;48.148;11.526;2023-09-12T04:22:17;19.90;99.90
22956;DHT22;40888;48.148;11.526;2023-09-12T04:24:43;20.00;99.90
22956;DHT22;40888;48.148;11.526;2023-09-12T04:27:09;20.20;99.90
22956;DHT22;40888;48.148;11.526;2023-09-12T04:29:35;20.20;99.90
22956;DHT22;40888;48.148;11.526;2023-09-12T04:32:05;20.10;99.90
22956;DHT22;40888;48.148;11.526;2023-09-12T04:34:30;20.60;99.90
22956;DHT22;40888;48.148;11.526;2023-09-12T04:36:56;20.40;99.90
22956;DHT22;40888;48.148;11.526;2023-09-12T04:39:22;20.30;99.90
22956;DHT22;40888;48.148;11.526;2023-09-12T04:41:48;20.30;99.90
22956;DHT22;40888;48.148;11.526;2023-09-12T04:44:14;20.40;99.90
22956;DHT22;40888;48.148;11.526;2023-09-12T04:46:40;20.30;99.90
22956;DHT22;40888;48.148;11.526;2023-09-12T04:49:06;20.50;99.90
22956;DHT22;40888;48.148;11.526;2023-09-12T04:51:32;20.50;99.90
22956;DHT22;40888;48.148;11.526;2023-09-12T04:53:57;20.20;99.90
22956;DHT22;40888;48.148;11.526;2023-09-12T04:56:23;20.10;99.90
22956;DHT22;40888;48.148;11.526;2023-09-12T04:58:52;20.40;99.90
22956;DHT22;40888;48.148;11.526;2023-09-12T05:01:17;20.10;99.90
22956;DHT22;40888;48.148;11.526;2023-09-12T05:03:44;20.10;99.90
22956;DHT22;40888;48.148;11.526;2023-09-12T05:06:10;20.20;99.90
22956;DHT22;40888;48.148;11.526;2023-09-12T05:08:36;20.10;99.90
22956;DHT22;40888;48.148;11.526;2023-09-12T05:11:02;19.80;99.90
22956;DHT22;40888;48.148;11.526;2023-09-12T05:13:29;19.50;99.90
22956;DHT22;40888;48.148;11.526;2023-09-12T05:15:54;19.50;99.90
22956;DHT22;40888;48.148;11.526;2023-09-12T05:18:22;19.50;99.90
22956;DHT22;40888;48.148;11.526;2023-09-12T05:20:48;19.60;99.90
22956;DHT22;40888;48.148;11.526;2023-09-12T05:23:13;19.80;99.90
22956;DHT22;40888;48.148;11.526;2023-09-12T05:25:39;20.10;99.90
22956;DHT22;40888;48.148;11.526;2023-09-12T05:28:05;19.70;99.90
22956;DHT22;40888;48.148;11.526;2023-09-12T05:30:31;19.70;99.90
22956;DHT22;40888;48.148;11.526;2023-09-12T05:32:56;19.70;99.90
22956;DHT22;40888;48.148;11.526;2023-09-12T05:35:22;19.80;99.90
22956;DHT22;40888;48.148;11.526;2023-09-12T05:37:48;20.00;99.90
22956;DHT22;40888;48.148;11.526;2023-09-12T05:40:14;19.60;99.90
22956;DHT22;40888;48.148;11.526;2023-09-12T05:42:41;19.90;99.90
22956;DHT22;40888;48.148;11.526;2023-09-12T05:45:07;19.80;99.90
22956;DHT22;40888;48.148;11.526;2023-09-12T05:47:32;19.70;99.90
22956;DHT22;40888;48.148;11.526;2023-09-12T05:49:58;19.90;99.90
22956;DHT22;40888;48.148;11.526;2023-09-12T05:52:26;20.00;99.90
22956;DHT22;40888;48.148;11.526;2023-09-12T05:54:51;19.90;99.90
22956;DHT22;40888;48.148;11.526;2023-09-12T05:57:17;19.70;99.90
22956;DHT22;40888;48.148;11.526;2023-09-12T05:59:43;19.90;99.90
22956;DHT22;40888;48.148;11.526;2023-09-12T06:02:10;19.80;99.90
22956;DHT22;40888;48.148;11.526;2023-09-12T06:04:36;20.00;99.90
22956;DHT22;40888;48.148;11.526;2023-09-12T06:07:02;19.90;99.90
22956;DHT22;40888;48.148;11.526;2023-09-12T06:09:29;19.80;99.90
22956;DHT22;40888;48.148;11.526;2023-09-12T06:11:55;19.70;99.90
22956;DHT22;40888;48.148;11.526;2023-09-12T06:14:21;19.80;99.90
22956;DHT22;40888;48.148;11.526;2023-09-12T06:16:46;20.10;99.90
22956;DHT22;40888;48.148;11.526;2023-09-12T06:19:12;20.00;99.90
22956;DHT22;40888;48.148;11.526;2023-09-12T07:51:59;22.90;99.90
22956;DHT22;40888;48.148;11.526;2023-09-12T07:54:25;22.90;99.90
22956;DHT22;40888;48.148;11.526;2023-09-12T07:56:51;23.30;99.90
22956;DHT22;40888;48.148;11.526;2023-09-12T07:59:17;23.40;99.90
22956;DHT22;40888;48.148;11.526;2023-09-12T08:01:42;23.40;99.90
22956;DHT22;40888;48.148;11.526;2023-09-12T10:20:07;29.00;83.70
22956;DHT22;40888;48.148;11.526;2023-09-12T10:22:41;29.10;84.20
22956;DHT22;40888;48.148;11.526;2023-09-12T10:25:09;29.30;83.00
22956;DHT22;40888;48.148;11.526;2023-09-12T10:27:37;29.40;80.10
22956;DHT22;40888;48.148;11.526;2023-09-12T10:30:04;29.80;81.50
22956;DHT22;40888;48.148;11.526;2023-09-12T10:32:32;29.40;81.10
22956;DHT22;40888;48.148;11.526;2023-09-12T10:34:59;29.50;81.80
22956;DHT22;40888;48.148;11.526;2023-09-12T10:37:26;29.60;83.20
22956;DHT22;40888;48.148;11.526;2023-09-12T10:39:53;29.40;84.70
22956;DHT22;40888;48.148;11.526;2023-09-12T12:36:29;31.30;74.80
22956;DHT22;40888;48.148;11.526;2023-09-12T12:38:55;31.30;68.70
22956;DHT22;40888;48.148;11.526;2023-09-12T12:41:28;32.00;68.50
22956;DHT22;40888;48.148;11.526;2023-09-12T12:43:57;31.80;68.90
22956;DHT22;40888;48.148;11.526;2023-09-12T12:46:27;32.10;67.50
22956;DHT22;40888;48.148;11.526;2023-09-12T12:48:54;31.90;68.10
22956;DHT22;40888;48.148;11.526;2023-09-12T12:51:25;32.60;66.90
22956;DHT22;40888;48.148;11.526;2023-09-12T12:54:02;32.10;64.10
22956;DHT22;40888;48.148;11.526;2023-09-12T12:56:29;31.60;64.80
22956;DHT22;40888;48.148;11.526;2023-09-12T12:58:56;31.70;65.10
22956;DHT22;40888;48.148;11.526;2023-09-12T13:01:24;32.10;65.80
22956;DHT22;40888;48.148;11.526;2023-09-12T13:03:50;32.00;66.70
22956;DHT22;40888;48.148;11.526;2023-09-12T13:06:17;32.40;66.60
22956;DHT22;40888;48.148;11.526;2023-09-12T13:08:44;32.70;65.50
22956;DHT22;40888;48.148;11.526;2023-09-12T13:11:12;32.90;63.60
22956;DHT22;40888;48.148;11.526;2023-09-12T13:13:38;33.00;65.40
22956;DHT22;40888;48.148;11.526;2023-09-12T13:16:05;33.10;63.80
22956;DHT22;40888;48.148;11.526;2023-09-12T13:18:32;32.80;62.40
22956;DHT22;40888;48.148;11.526;2023-09-12T13:20:58;32.70;63.00
22956;DHT22;40888;48.148;11.526;2023-09-12T13:23:24;32.30;64.80
22956;DHT22;40888;48.148;11.526;2023-09-12T13:25:51;32.70;64.10
22956;DHT22;40888;48.148;11.526;2023-09-12T13:28:17;32.30;63.00
22956;DHT22;40888;48.148;11.526;2023-09-12T13:30:43;32.30;63.90
22956;DHT22;40888;48.148;11.526;2023-09-12T13:33:11;31.90;64.00
22956;DHT22;40888;48.148;11.526;2023-09-12T13:35:37;32.50;62.40
22956;DHT22;40888;48.148;11.526;2023-09-12T13:38:03;32.70;63.60
22956;DHT22;40888;48.148;11.526;2023-09-12T13:40:38;33.00;63.50
22956;DHT22;40888;48.148;11.526;2023-09-12T13:43:07;32.80;63.60
22956;DHT22;40888;48.148;11.526;2023-09-12T13:45:34;32.60;65.60
22956;DHT22;40888;48.148;11.526;2023-09-12T13:48:00;33.10;64.30
22956;DHT22;40888;48.148;11.526;2023-09-12T13:50:26;33.10;63.70
22956;DHT22;40888;48.148;11.526;2023-09-12T13:52:56;33.40;64.60
22956;DHT22;40888;48.148;11.526;2023-09-12T13:55:22;33.20;62.40
22956;DHT22;40888;48.148;11.526;2023-09-12T13:57:48;32.90;61.60
22956;DHT22;40888;48.148;11.526;2023-09-12T14:00:14;33.00;61.80
22956;DHT22;40888;48.148;11.526;2023-09-12T14:02:40;32.60;63.50
22956;DHT22;40888;48.148;11.526;2023-09-12T14:05:06;31.90;63.50
22956;DHT22;40888;48.148;11.526;2023-09-12T14:07:31;32.40;62.10
22956;DHT22;40888;48.148;11.526;2023-09-12T14:09:57;32.50;62.10
22956;DHT22;40888;48.148;11.526;2023-09-12T14:12:23;33.10;61.00
22956;DHT22;40888;48.148;11.526;2023-09-12T14:14:49;32.90;60.00
22956;DHT22;40888;48.148;11.526;2023-09-12T14:17:15;33.00;60.60
22956;DHT22;40888;48.148;11.526;2023-09-12T14:19:41;33.10;60.90
22956;DHT22;40888;48.148;11.526;2023-09-12T14:22:07;32.90;62.90
22956;DHT22;40888;48.148;11.526;2023-09-12T14:24:32;32.80;63.20
22956;DHT22;40888;48.148;11.526;2023-09-12T14:26:58;33.30;61.00
22956;DHT22;40888;48.148;11.526;2023-09-12T14:29:24;33.50;59.90
22956;DHT22;40888;48.148;11.526;2023-09-12T14:31:53;33.00;59.90
22956;DHT22;40888;48.148;11.526;2023-09-12T14:34:27;33.20;59.80
22956;DHT22;40888;48.148;11.526;2023-09-12T14:36:56;33.30;60.70
22956;DHT22;40888;48.148;11.526;2023-09-12T14:39:23;33.00;61.30
22956;DHT22;40888;48.148;11.526;2023-09-12T14:41:49;33.00;60.70
22956;DHT22;40888;48.148;11.526;2023-09-12T14:44:21;32.60;61.60
22956;DHT22;40888;48.148;11.526;2023-09-12T14:46:47;32.80;65.00
22956;DHT22;40888;48.148;11.526;2023-09-12T14:49:13;32.80;65.70
22956;DHT22;40888;48.148;11.526;2023-09-12T14:51:38;32.60;66.30
22956;DHT22;40888;48.148;11.526;2023-09-12T14:54:05;32.60;67.50
22956;DHT22;40888;48.148;11.526;2023-09-12T14:56:32;32.70;67.80
22956;DHT22;40888;48.148;11.526;2023-09-12T14:58:58;32.50;69.10
22956;DHT22;40888;48.148;11.526;2023-09-12T15:01:24;32.70;68.30
22956;DHT22;40888;48.148;11.526;2023-09-12T15:03:53;32.50;67.90
22956;DHT22;40888;48.148;11.526;2023-09-12T15:06:19;32.90;68.30
22956;DHT22;40888;48.148;11.526;2023-09-12T15:08:46;33.10;68.40
22956;DHT22;40888;48.148;11.526;2023-09-12T15:11:12;33.20;68.30
22956;DHT22;40888;48.148;11.526;2023-09-12T15:13:37;32.90;68.20
22956;DHT22;40888;48.148;11.526;2023-09-12T15:16:04;32.50;69.00
22956;DHT22;40888;48.148;11.526;2023-09-12T15:18:30;32.40;70.20
22956;DHT22;40888;48.148;11.526;2023-09-12T15:20:57;32.30;69.70
22956;DHT22;40888;48.148;11.526;2023-09-12T15:23:23;32.20;67.90
22956;DHT22;40888;48.148;11.526;2023-09-12T15:25:50;32.70;67.30
22956;DHT22;40888;48.148;11.526;2023-09-12T15:28:16;32.80;66.70
22956;DHT22;40888;48.148;11.526;2023-09-12T15:30:42;32.70;66.90
22956;DHT22;40888;48.148;11.526;2023-09-12T15:33:08;33.00;67.00
22956;DHT22;40888;48.148;11.526;2023-09-12T15:35:34;33.20;66.50
22956;DHT22;40888;48.148;11.526;2023-09-12T15:38:00;32.90;66.20
22956;DHT22;40888;48.148;11.526;2023-09-12T15:40:26;33.00;66.10
22956;DHT22;40888;48.148;11.526;2023-09-12T15:42:52;32.80;66.40
22956;DHT22;40888;48.148;11.526;2023-09-12T15:45:19;32.70;66.70
22956;DHT22;40888;48.148;11.526;2023-09-12T15:47:48;32.80;66.30
22956;DHT22;40888;48.148;11.526;2023-09-12T15:50:14;32.80;66.20
22956;DHT22;40888;48.148;11.526;2023-09-12T15:52:41;32.70;66.80
22956;DHT22;40888;48.148;11.526;2023-09-12T15:55:09;32.30;67.80
22956;DHT22;40888;48.148;11.526;2023-09-12T15:57:36;32.30;67.30
22956;DHT22;40888;48.148;11.526;2023-09-12T16:00:09;32.10;68.10
22956;DHT22;40888;48.148;11.526;2023-09-12T16:02:42;32.00;68.20
22956;DHT22;40888;48.148;11.526;2023-09-12T16:05:09;31.70;68.60
22956;DHT22;40888;48.148;11.526;2023-09-12T16:07:36;31.80;69.30
22956;DHT22;40888;48.148;11.526;2023-09-12T16:10:01;31.70;69.60
22956;DHT22;40888;48.148;11.526;2023-09-12T16:12:27;31.10;70.10
22956;DHT22;40888;48.148;11.526;2023-09-12T16:14:53;31.00;70.90
22956;DHT22;40888;48.148;11.526;2023-09-12T16:17:22;30.60;71.40
22956;DHT22;40888;48.148;11.526;2023-09-12T16:19:48;30.60;71.90
22956;DHT22;40888;48.148;11.526;2023-09-12T16:22:13;30.30;72.20
22956;DHT22;40888;48.148;11.526;2023-09-12T16:24:41;30.30;72.90
22956;DHT22;40888;48.148;11.526;2023-09-12T16:27:07;30.00;73.20
22956;DHT22;40888;48.148;11.526;2023-09-12T16:29:33;30.10;73.80
22956;DHT22;40888;48.148;11.526;2023-09-12T16:31:59;30.10;74.00
22956;DHT22;40888;48.148;11.526;2023-09-12T16:34:28;29.80;74.30
22956;DHT22;40888;48.148;11.526;2023-09-12T16:36:54;29.60;74.50
22956;DHT22;40888;48.148;11.526;2023-09-12T16:39:20;29.60;75.00
22956;DHT22;40888;48.148;11.526;2023-09-12T16:41:46;29.40;75.30
22956;DHT22;40888;48.148;11.526;2023-09-12T16:44:12;29.20;75.60
22956;DHT22;40888;48.148;11.526;2023-09-12T16:46:39;29.10;75.70
22956;DHT22;40888;48.148;11.526;2023-09-12T16:49:05;29.20;76.00
22956;DHT22;40888;48.148;11.526;2023-09-12T16:51:30;28.90;76.00
22956;DHT22;40888;48.148;11.526;2023-09-12T16:53:56;29.10;76.90
22956;DHT22;40888;48.148;11.526;2023-09-12T16:56:22;28.90;76.50
22956;DHT22;40888;48.148;11.526;2023-09-12T16:58:48;29.10;77.00
22956;DHT22;40888;48.148;11.526;2023-09-12T17:01:14;28.90;77.10
22956;DHT22;40888;48.148;11.526;2023-09-12T17:03:42;28.90;77.40
22956;DHT22;40888;48.148;11.526;2023-09-12T17:06:08;28.80;77.80
22956;DHT22;40888;48.148;11.526;2023-09-12T17:08:34;28.80;78.30
22956;DHT22;40888;48.148;11.526;2023-09-12T17:11:06;28.40;78.70
22956;DHT22;40888;48.148;11.526;2023-09-12T17:13:33;28.80;79.10
22956;DHT22;40888;48.148;11.526;2023-09-12T17:15:59;28.60;79.90
22956;DHT22;40888;48.148;11.526;2023-09-12T17:18:25;28.40;80.50
22956;DHT22;40888;48.148;11.526;2023-09-12T17:20:51;28.60;81.00
22956;DHT22;40888;48.148;11.526;2023-09-12T17:23:16;28.50;82.00
22956;DHT22;40888;48.148;11.526;2023-09-12T17:25:42;28.20;81.80
22956;DHT22;40888;48.148;11.526;2023-09-12T17:28:08;28.10;82.50
22956;DHT22;40888;48.148;11.526;2023-09-12T17:30:34;28.10;82.60
22956;DHT22;40888;48.148;11.526;2023-09-12T17:33:00;28.10;83.10
22956;DHT22;40888;48.148;11.526;2023-09-12T17:35:27;27.90;83.70
22956;DHT22;40888;48.148;11.526;2023-09-12T17:37:53;28.10;84.00
22956;DHT22;40888;48.148;11.526;2023-09-12T17:40:19;28.20;84.80
22956;DHT22;40888;48.148;11.526;2023-09-12T17:42:44;27.90;85.30
22956;DHT22;40888;48.148;11.526;2023-09-12T17:45:10;27.90;85.10
22956;DHT22;40888;48.148;11.526;2023-09-12T17:47:36;27.60;85.50
22956;DHT22;40888;48.148;11.526;2023-09-12T17:50:02;27.60;87.40
22956;DHT22;40888;48.148;11.526;2023-09-12T17:52:29;27.30;88.50
22956;DHT22;40888;48.148;11.526;2023-09-12T17:54:55;27.40;90.00
22956;DHT22;40888;48.148;11.526;2023-09-12T17:57:21;27.40;90.00
22956;DHT22;40888;48.148;11.526;2023-09-12T17:59:47;27.20;90.60
22956;DHT22;40888;48.148;11.526;2023-09-12T18:02:14;27.30;91.10
22956;DHT22;40888;48.148;11.526;2023-09-12T18:04:40;27.30;91.70
22956;DHT22;40888;48.148;11.526;2023-09-12T18:07:06;27.10;92.60
22956;DHT22;40888;48.148;11.526;2023-09-12T18:09:31;27.10;93.10
22956;DHT22;40888;48.148;11.526;2023-09-12T18:11:59;27.00;93.70
22956;DHT22;40888;48.148;11.526;2023-09-12T18:14:25;26.70;94.40
22956;DHT22;40888;48.148;11.526;2023-09-12T18:16:51;27.00;94.80
22956;DHT22;40888;48.148;11.526;2023-09-12T18:19:18;26.80;94.90
22956;DHT22;40888;48.148;11.526;2023-09-12T18:21:44;26.80;95.10
22956;DHT22;40888;48.148;11.526;2023-09-12T18:24:09;26.80;95.50
22956;DHT22;40888;48.148;11.526;2023-09-12T18:26:35;26.80;96.20
22956;DHT22;40888;48.148;11.526;2023-09-12T18:29:02;26.70;97.80
22956;DHT22;40888;48.148;11.526;2023-09-12T18:31:28;26.40;99.90
22956;DHT22;40888;48.148;11.526;2023-09-12T18:33:53;26.00;99.90
22956;DHT22;40888;48.148;11.526;2023-09-12T18:36:19;26.00;99.90
22956;DHT22;40888;48.148;11.526;2023-09-12T18:38:45;25.80;99.90
22956;DHT22;40888;48.148;11.526;2023-09-12T18:41:14;25.60;99.90
22956;DHT22;40888;48.148;11.526;2023-09-12T18:43:41;25.70;99.90
22956;DHT22;40888;48.148;11.526;2023-09-12T18:46:07;25.50;99.90
22956;DHT22;40888;48.148;11.526;2023-09-12T18:48:42;25.60;99.90
22956;DHT22;40888;48.148;11.526;2023-09-12T18:51:08;25.70;99.90
22956;DHT22;40888;48.148;11.526;2023-09-12T18:53:34;25.30;99.90
22956;DHT22;40888;48.148;11.526;2023-09-12T18:56:00;25.50;99.90
22956;DHT22;40888;48.148;11.526;2023-09-12T18:58:28;25.40;99.90
22956;DHT22;40888;48.148;11.526;2023-09-12T19:00:59;25.30;99.90
22956;DHT22;40888;48.148;11.526;2023-09-12T19:03:34;25.10;99.90
22956;DHT22;40888;48.148;11.526;2023-09-12T19:06:08;24.90;99.90
22956;DHT22;40888;48.148;11.526;2023-09-12T19:08:35;24.80;99.90
22956;DHT22;40888;48.148;11.526;2023-09-12T19:11:08;24.80;99.90
22956;DHT22;40888;48.148;11.526;2023-09-12T19:13:36;24.70;99.90
22956;DHT22;40888;48.148;11.526;2023-09-12T19:16:02;24.80;99.90
22956;DHT22;40888;48.148;11.526;2023-09-12T19:18:29;24.70;99.90
22956;DHT22;40888;48.148;11.526;2023-09-12T19:20:57;24.70;99.90
22956;DHT22;40888;48.148;11.526;2023-09-12T19:23:23;24.40;99.90
22956;DHT22;40888;48.148;11.526;2023-09-12T19:25:48;24.60;99.90
22956;DHT22;40888;48.148;11.526;2023-09-12T19:31:03;24.70;99.90
22956;DHT22;40888;48.148;11.526;2023-09-12T19:33:31;24.50;99.90
22956;DHT22;40888;48.148;11.526;2023-09-12T19:36:18;24.30;99.90
22956;DHT22;40888;48.148;11.526;2023-09-12T19:39:06;24.40;99.90
22956;DHT22;40888;48.148;11.526;2023-09-12T19:46:46;24.80;99.90
22956;DHT22;40888;48.148;11.526;2023-09-12T19:49:11;24.20;99.90
22956;DHT22;40888;48.148;11.526;2023-09-12T19:51:37;24.20;99.90
22956;DHT22;40888;48.148;11.526;2023-09-12T19:54:03;23.90;99.90
22956;DHT22;40888;48.148;11.526;2023-09-12T19:56:30;24.00;99.90
22956;DHT22;40888;48.148;11.526;2023-09-12T19:58:55;24.10;99.90
22956;DHT22;40888;48.148;11.526;2023-09-12T20:01:21;24.00;99.90
22956;DHT22;40888;48.148;11.526;2023-09-12T20:03:47;24.00;99.90
22956;DHT22;40888;48.148;11.526;2023-09-12T20:06:12;24.00;99.90
22956;DHT22;40888;48.148;11.526;2023-09-12T20:08:38;24.00;99.90
22956;DHT22;40888;48.148;11.526;2023-09-12T20:11:07;23.60;99.90
22956;DHT22;40888;48.148;11.526;2023-09-12T20:13:34;23.50;99.90
22956;DHT22;40888;48.148;11.526;2023-09-12T20:16:13;23.70;99.90
22956;DHT22;40888;48.148;11.526;2023-09-12T20:18:40;23.50;99.90
22956;DHT22;40888;48.148;11.526;2023-09-12T20:24:09;23.40;99.90
22956;DHT22;40888;48.148;11.526;2023-09-12T20:26:35;23.20;99.90
22956;DHT22;40888;48.148;11.526;2023-09-12T20:29:03;23.20;99.90
22956;DHT22;40888;48.148;11.526;2023-09-12T20:31:30;23.10;99.90
22956;DHT22;40888;48.148;11.526;2023-09-12T20:33:56;23.20;99.90
22956;DHT22;40888;48.148;11.526;2023-09-12T20:36:22;23.10;99.90
22956;DHT22;40888;48.148;11.526;2023-09-12T20:38:50;23.10;99.90
22956;DHT22;40888;48.148;11.526;2023-09-12T20:41:36;23.20;99.90
22956;DHT22;40888;48.148;11.526;2023-09-12T20:44:02;23.20;99.90
22956;DHT22;40888;48.148;11.526;2023-09-12T20:46:27;23.10;99.90
22956;DHT22;40888;48.148;11.526;2023-09-12T20:48:53;23.10;99.90
22956;DHT22;40888;48.148;11.526;2023-09-12T20:51:20;23.00;99.90
22956;DHT22;40888;48.148;11.526;2023-09-12T20:53:46;23.10;99.90
22956;DHT22;40888;48.148;11.526;2023-09-12T20:56:13;23.30;99.90
22956;DHT22;40888;48.148;11.526;2023-09-12T20:58:38;23.20;99.90
22956;DHT22;40888;48.148;11.526;2023-09-12T21:01:04;23.10;99.90
22956;DHT22;40888;48.148;11.526;2023-09-12T21:03:30;23.50;99.90
22956;DHT22;40888;48.148;11.526;2023-09-12T21:05:56;23.30;99.90
22956;DHT22;40888;48.148;11.526;2023-09-12T21:08:21;23.20;99.90
22956;DHT22;40888;48.148;11.526;2023-09-12T21:10:47;22.80;99.90
22956;DHT22;40888;48.148;11.526;2023-09-12T21:13:13;23.10;99.90
22956;DHT22;40888;48.148;11.526;2023-09-12T21:15:42;22.80;99.90
22956;DHT22;40888;48.148;11.526;2023-09-12T21:18:07;22.50;99.90
22956;DHT22;40888;48.148;11.526;2023-09-12T21:20:34;22.50;99.90
22956;DHT22;40888;48.148;11.526;2023-09-12T21:23:00;22.40;99.90
22956;DHT22;40888;48.148;11.526;2023-09-12T21:25:25;22.50;99.90
22956;DHT22;40888;48.148;11.526;2023-09-12T21:27:51;22.40;99.90
22956;DHT22;40888;48.148;11.526;2023-09-12T21:30:17;22.80;99.90
22956;DHT22;40888;48.148;11.526;2023-09-12T21:32:43;22.90;99.90
22956;DHT22;40888;48.148;11.526;2023-09-12T21:35:11;22.70;99.90